createdAt,value
2019-03-16T00:02:12.612Z,9.40
2019-03-16T00:04:43.844Z,9.50
2019-03-16T00:07:15.518Z,9.50
2019-03-16T00:09:46.988Z,9.50
2019-03-16T00:12:18.021Z,9.50
2019-03-16T00:14:49.040Z,9.50
2019-03-16T00:17:23.099Z,9.50
2019-03-16T00:19:52.658Z,9.60
2019-03-16T00:22:23.586Z,9.60
2019-03-16T00:24:54.550Z,9.60
2019-03-16T00:27:25.485Z,9.60
2019-03-16T00:29:56.447Z,9.60
2019-03-16T00:32:27.414Z,9.50
2019-03-16T00:34:58.378Z,9.50
2019-03-16T00:37:29.350Z,9.50
2019-03-16T00:40:00.390Z,9.40
2019-03-16T00:42:31.386Z,9.40
2019-03-16T00:45:02.326Z,9.40
2019-03-16T00:47:33.285Z,9.40
2019-03-16T00:50:05.714Z,9.40
2019-03-16T00:52:36.997Z,9.40
2019-03-16T00:55:09.449Z,9.30
2019-03-16T00:57:40.445Z,9.30
2019-03-16T01:00:17.625Z,9.30
2019-03-16T01:02:48.600Z,9.30
2019-03-16T01:05:19.537Z,9.20
2019-03-16T01:07:50.500Z,9.20
2019-03-16T01:10:21.434Z,9.20
2019-03-16T01:12:52.400Z,9.20
2019-03-16T01:15:23.334Z,9.20
2019-03-16T01:17:54.296Z,9.20
2019-03-16T01:20:25.234Z,9.10
2019-03-16T01:22:56.192Z,9.20
2019-03-16T01:25:27.159Z,9.20
2019-03-16T01:27:58.096Z,9.30
2019-03-16T01:30:29.053Z,9.20
2019-03-16T01:32:59.992Z,9.20
2019-03-16T01:35:31.033Z,9.30
2019-03-16T01:38:01.964Z,9.30
2019-03-16T01:40:32.926Z,9.30
2019-03-16T01:43:03.859Z,9.30
2019-03-16T01:45:34.826Z,9.20
2019-03-16T01:48:05.758Z,9.30
2019-03-16T01:50:36.718Z,9.30
2019-03-16T01:53:07.649Z,9.30
2019-03-16T01:55:39.028Z,9.30
2019-03-16T01:58:09.956Z,9.30
2019-03-16T02:00:40.914Z,9.30
2019-03-16T02:03:11.841Z,9.40
2019-03-16T02:05:42.899Z,9.30
2019-03-16T02:08:13.939Z,9.30
2019-03-16T02:10:44.901Z,9.30
2019-03-16T02:13:15.870Z,9.30
2019-03-16T02:15:46.830Z,9.30
2019-03-16T02:18:17.791Z,9.30
2019-03-16T02:20:48.719Z,9.30
2019-03-16T02:23:19.680Z,9.40
2019-03-16T02:25:50.611Z,9.30
2019-03-16T02:28:21.641Z,9.20
2019-03-16T02:30:52.569Z,9.20
2019-03-16T02:33:23.637Z,9.10
2019-03-16T02:35:54.653Z,9.00
2019-03-16T02:38:25.698Z,9.00
2019-03-16T02:40:56.871Z,9.00
2019-03-16T02:43:27.849Z,8.90
2019-03-16T02:45:58.974Z,8.90
2019-03-16T02:48:30.061Z,9.00
2019-03-16T02:51:01.013Z,8.90
2019-03-16T02:53:32.052Z,8.90
2019-03-16T02:56:02.979Z,8.90
2019-03-16T02:58:33.944Z,8.90
2019-03-16T03:01:05.981Z,8.90
2019-03-16T03:03:36.988Z,9.00
2019-03-16T03:06:07.953Z,9.00
2019-03-16T03:08:38.885Z,9.00
2019-03-16T03:11:09.860Z,9.00
2019-03-16T03:13:40.852Z,9.00
2019-03-16T03:16:11.826Z,9.00
2019-03-16T03:18:42.762Z,8.90
2019-03-16T03:21:13.725Z,8.90
2019-03-16T03:23:44.660Z,8.90
2019-03-16T03:26:15.624Z,8.90
2019-03-16T03:28:46.628Z,8.90
2019-03-16T03:31:17.599Z,9.00
2019-03-16T03:33:59.799Z,8.90
2019-03-16T03:36:21.258Z,9.00
2019-03-16T03:38:53.261Z,9.00
2019-03-16T03:41:24.262Z,9.00
2019-03-16T03:43:55.207Z,9.00
2019-03-16T03:46:26.184Z,9.00
2019-03-16T03:48:57.113Z,9.10
2019-03-16T03:51:28.076Z,9.10
2019-03-16T03:53:59.038Z,9.10
2019-03-16T03:56:30.020Z,9.10
2019-03-16T03:59:01.031Z,9.20
2019-03-16T04:01:31.962Z,9.10
2019-03-16T04:04:14.915Z,9.20
2019-03-16T04:06:35.564Z,9.20
2019-03-16T04:09:08.788Z,9.20
2019-03-16T04:11:39.715Z,9.20
2019-03-16T04:14:10.724Z,9.10
2019-03-16T04:16:41.652Z,9.10
2019-03-16T04:19:12.621Z,9.10
2019-03-16T04:21:43.546Z,9.10
2019-03-16T04:24:14.517Z,9.00
2019-03-16T04:26:45.452Z,9.00
2019-03-16T04:29:16.406Z,9.00
2019-03-16T04:31:47.416Z,9.00
2019-03-16T04:34:28.437Z,9.00
2019-03-16T04:36:51.196Z,8.90
2019-03-16T04:39:22.187Z,8.80
2019-03-16T04:41:53.126Z,8.80
2019-03-16T04:44:24.153Z,8.80
2019-03-16T04:46:55.112Z,8.80
2019-03-16T04:49:26.047Z,8.80
2019-03-16T04:51:57.010Z,8.80
2019-03-16T04:54:27.949Z,8.80
2019-03-16T04:56:59.173Z,8.80
2019-03-16T04:59:30.158Z,8.80
2019-03-16T05:02:01.117Z,8.80
2019-03-16T05:04:41.966Z,8.80
2019-03-16T05:07:04.739Z,8.80
2019-03-16T05:09:35.779Z,8.90
2019-03-16T05:12:06.800Z,8.90
2019-03-16T05:14:37.742Z,8.80
2019-03-16T05:17:08.713Z,8.80
2019-03-16T05:19:39.647Z,8.80
2019-03-16T05:22:10.623Z,8.80
2019-03-16T05:24:41.559Z,8.80
2019-03-16T05:27:12.524Z,8.80
2019-03-16T05:29:43.490Z,8.80
2019-03-16T05:32:14.452Z,8.90
2019-03-16T05:34:55.855Z,8.90
2019-03-16T05:37:18.043Z,8.90
2019-03-16T05:39:49.003Z,9.00
2019-03-16T05:42:19.928Z,9.00
2019-03-16T05:44:50.891Z,9.00
2019-03-16T05:47:21.825Z,9.10
2019-03-16T05:49:52.785Z,9.20
2019-03-16T05:52:23.717Z,9.20
2019-03-16T05:54:54.708Z,9.20
2019-03-16T05:57:25.634Z,9.20
2019-03-16T05:59:56.631Z,9.30
2019-03-16T06:02:27.560Z,9.30
2019-03-16T06:05:09.773Z,9.30
2019-03-16T06:07:31.171Z,9.30
2019-03-16T06:10:02.142Z,9.30
2019-03-16T06:12:33.081Z,9.40
2019-03-16T06:15:07.252Z,9.30
2019-03-16T06:17:38.191Z,9.40
2019-03-16T06:20:14.463Z,9.40
2019-03-16T06:22:46.490Z,9.40
2019-03-16T06:25:17.516Z,9.40
2019-03-16T06:27:48.485Z,9.40
2019-03-16T06:30:20.836Z,9.40
2019-03-16T06:32:52.081Z,9.40
2019-03-16T06:35:24.970Z,9.40
2019-03-16T06:37:55.705Z,9.40
2019-03-16T06:40:26.635Z,9.40
2019-03-16T06:42:57.592Z,9.40
2019-03-16T06:45:28.526Z,9.50
2019-03-16T06:47:59.489Z,9.50
2019-03-16T06:50:30.495Z,9.50
2019-03-16T06:53:01.457Z,9.50
2019-03-16T06:55:32.381Z,9.50
2019-03-16T06:58:03.346Z,9.50
2019-03-16T07:00:34.280Z,9.50
2019-03-16T07:03:05.247Z,9.50
2019-03-16T07:05:38.737Z,9.50
2019-03-16T07:08:08.827Z,9.50
2019-03-16T07:10:39.764Z,9.50
2019-03-16T07:13:10.976Z,9.60
2019-03-16T07:15:41.920Z,9.60
2019-03-16T07:18:12.875Z,9.70
2019-03-16T07:20:43.804Z,9.70
2019-03-16T07:23:14.786Z,9.80
2019-03-16T07:25:45.899Z,9.80
2019-03-16T07:28:16.855Z,9.90
2019-03-16T07:30:47.819Z,9.90
2019-03-16T07:33:18.739Z,9.90
2019-03-16T07:35:49.725Z,9.90
2019-03-16T07:38:20.653Z,10.00
2019-03-16T07:40:51.630Z,10.00
2019-03-16T07:43:22.499Z,10.10
2019-03-16T07:45:53.466Z,10.10
2019-03-16T07:48:24.402Z,10.20
2019-03-16T07:50:55.697Z,10.20
2019-03-16T07:53:26.640Z,10.30
2019-03-16T07:55:57.603Z,10.30
2019-03-16T07:58:28.542Z,10.30
2019-03-16T08:00:59.541Z,10.40
2019-03-16T08:03:30.479Z,10.30
2019-03-16T08:06:01.440Z,10.40
2019-03-16T08:08:32.375Z,10.30
2019-03-16T08:11:03.310Z,10.40
2019-03-16T08:13:34.253Z,10.40
2019-03-16T08:16:05.219Z,10.40
2019-03-16T08:18:36.205Z,10.60
2019-03-16T08:21:07.171Z,10.50
2019-03-16T08:23:38.149Z,10.60
2019-03-16T08:26:09.155Z,10.80
2019-03-16T08:28:40.133Z,10.80
2019-03-16T08:31:11.075Z,10.80
2019-03-16T08:33:42.114Z,10.80
2019-03-16T08:36:13.058Z,10.90
2019-03-16T08:38:44.031Z,10.90
2019-03-16T08:41:14.973Z,10.80
2019-03-16T08:43:45.939Z,10.90
2019-03-16T08:46:16.879Z,11.10
2019-03-16T08:48:47.849Z,11.10
2019-03-16T08:51:18.791Z,11.30
2019-03-16T08:53:49.800Z,11.30
2019-03-16T08:56:20.742Z,11.20
2019-03-16T08:58:51.707Z,11.20
2019-03-16T09:01:22.653Z,11.20
2019-03-16T09:03:53.947Z,11.00
2019-03-16T09:06:24.891Z,11.20
2019-03-16T09:08:55.873Z,11.30
2019-03-16T09:11:27.229Z,11.30
2019-03-16T09:13:58.198Z,11.10
2019-03-16T09:16:29.140Z,11.10
2019-03-16T09:19:00.109Z,11.20
2019-03-16T09:21:31.095Z,11.50
2019-03-16T09:24:02.083Z,11.60
2019-03-16T09:26:33.195Z,11.70
2019-03-16T09:29:14.487Z,11.70
2019-03-16T09:31:36.849Z,11.60
2019-03-16T09:34:07.799Z,11.60
2019-03-16T09:36:38.772Z,11.70
2019-03-16T09:39:09.714Z,11.90
2019-03-16T09:41:40.687Z,12.10
2019-03-16T09:44:11.632Z,12.00
2019-03-16T09:46:42.680Z,12.00
2019-03-16T09:49:13.621Z,12.10
2019-03-16T09:51:44.594Z,12.10
2019-03-16T09:54:15.559Z,12.20
2019-03-16T09:56:46.535Z,12.50
2019-03-16T09:59:17.587Z,12.60
2019-03-16T10:01:48.748Z,12.70
2019-03-16T10:04:19.794Z,12.80
2019-03-16T10:06:50.810Z,13.00
2019-03-16T10:09:22.702Z,12.90
2019-03-16T10:11:53.669Z,13.00
2019-03-16T10:14:24.623Z,12.70
2019-03-16T10:16:55.676Z,12.60
2019-03-16T10:19:26.749Z,12.70
2019-03-16T10:21:57.960Z,13.00
2019-03-16T10:24:28.997Z,13.20
2019-03-16T10:27:00.014Z,13.40
2019-03-16T10:29:30.979Z,13.90
2019-03-16T10:32:01.928Z,14.30
2019-03-16T10:34:32.901Z,14.50
2019-03-16T10:37:03.847Z,14.70
2019-03-16T10:39:34.929Z,15.00
2019-03-16T10:42:06.017Z,15.50
2019-03-16T10:44:37.138Z,15.80
2019-03-16T10:47:08.101Z,15.80
2019-03-16T10:49:39.209Z,14.80
2019-03-16T10:52:10.222Z,15.10
2019-03-16T10:54:41.233Z,14.40
2019-03-16T10:57:12.171Z,14.30
2019-03-16T10:59:44.171Z,13.90
2019-03-16T11:02:15.114Z,14.90
2019-03-16T11:04:46.479Z,15.10
2019-03-16T11:07:17.619Z,14.10
2019-03-16T11:09:48.598Z,14.50
2019-03-16T11:12:19.572Z,15.40
2019-03-16T11:14:50.518Z,15.10
2019-03-16T11:17:21.527Z,15.90
2019-03-16T11:19:52.478Z,16.00
2019-03-16T11:22:23.445Z,15.80
2019-03-16T11:24:54.398Z,15.80
2019-03-16T11:27:25.412Z,15.60
2019-03-16T11:29:56.477Z,15.70
2019-03-16T11:32:27.542Z,15.90
2019-03-16T11:34:58.543Z,16.50
2019-03-16T11:37:29.528Z,16.70
2019-03-16T11:40:00.474Z,17.20
2019-03-16T11:42:31.455Z,16.60
2019-03-16T11:45:02.402Z,16.10
2019-03-16T11:47:33.377Z,16.20
2019-03-16T11:50:04.727Z,16.10
2019-03-16T11:52:35.701Z,16.00
2019-03-16T11:55:09.543Z,16.20
2019-03-16T11:57:40.532Z,16.80
2019-03-16T12:00:16.531Z,17.10
2019-03-16T12:02:47.505Z,17.30
2019-03-16T12:05:18.447Z,16.70
2019-03-16T12:07:49.423Z,16.00
2019-03-16T12:10:20.388Z,15.60
2019-03-16T12:12:51.374Z,15.10
2019-03-16T12:15:22.379Z,14.70
2019-03-16T12:17:53.402Z,14.80
2019-03-16T12:20:24.381Z,15.00
2019-03-16T12:22:55.331Z,14.70
2019-03-16T12:25:26.308Z,14.50
2019-03-16T12:27:57.244Z,14.30
2019-03-16T12:30:28.213Z,14.30
2019-03-16T12:32:59.236Z,14.50
2019-03-16T12:35:30.214Z,14.60
2019-03-16T12:38:01.163Z,14.70
2019-03-16T12:40:32.147Z,14.60
2019-03-16T12:43:03.088Z,14.40
2019-03-16T12:45:34.064Z,14.40
2019-03-16T12:48:05.025Z,14.60
2019-03-16T12:50:35.987Z,14.60
2019-03-16T12:53:06.928Z,14.70
2019-03-16T12:55:37.953Z,14.80
2019-03-16T12:58:09.723Z,14.80
2019-03-16T13:00:40.680Z,14.60
2019-03-16T13:03:11.701Z,14.20
2019-03-16T13:05:42.726Z,14.20
2019-03-16T13:08:13.756Z,14.30
2019-03-16T13:10:44.806Z,14.50
2019-03-16T13:13:15.774Z,14.50
2019-03-16T13:15:46.715Z,14.70
2019-03-16T13:18:17.775Z,14.80
2019-03-16T13:20:48.721Z,14.70
2019-03-16T13:23:19.689Z,14.90
2019-03-16T13:25:51.644Z,15.30
2019-03-16T13:28:22.551Z,15.60
2019-03-16T13:30:53.581Z,15.50
2019-03-16T13:33:24.597Z,15.60
2019-03-16T13:35:55.586Z,15.70
2019-03-16T13:38:26.613Z,16.10
2019-03-16T13:40:58.091Z,16.00
2019-03-16T13:43:29.155Z,16.10
2019-03-16T13:46:00.157Z,16.70
2019-03-16T13:48:31.146Z,16.90
2019-03-16T13:51:02.182Z,17.00
2019-03-16T13:53:33.499Z,17.20
2019-03-16T13:56:05.007Z,17.40
2019-03-16T13:58:36.016Z,17.30
2019-03-16T14:01:07.000Z,17.70
2019-03-16T14:03:38.081Z,18.40
2019-03-16T14:06:09.333Z,18.80
2019-03-16T14:08:40.285Z,18.90
2019-03-16T14:11:11.355Z,19.90
2019-03-16T14:13:42.343Z,21.90
2019-03-16T14:16:13.713Z,22.50
2019-03-16T14:18:44.706Z,23.00
2019-03-16T14:21:15.771Z,24.00
2019-03-16T14:23:57.886Z,22.50
2019-03-16T14:26:30.461Z,22.10
2019-03-16T14:29:04.371Z,21.80
2019-03-16T14:31:35.601Z,21.90
2019-03-16T14:34:06.657Z,21.70
2019-03-16T14:36:37.601Z,21.70
2019-03-16T14:39:09.084Z,21.00
2019-03-16T14:41:40.041Z,20.20
2019-03-16T14:44:11.014Z,19.60
2019-03-16T14:46:41.965Z,20.20
2019-03-16T14:49:14.042Z,21.40
2019-03-16T14:51:44.988Z,21.60
2019-03-16T14:54:16.148Z,21.90
2019-03-16T14:56:47.126Z,21.40
2019-03-16T14:59:18.178Z,20.60
2019-03-16T15:01:49.193Z,20.90
2019-03-16T15:04:20.176Z,21.60
2019-03-16T15:06:51.129Z,21.90
2019-03-16T15:09:22.189Z,22.10
2019-03-16T15:11:53.175Z,23.00
2019-03-16T15:14:24.158Z,23.40
2019-03-16T15:16:55.136Z,22.80
2019-03-16T15:19:26.115Z,21.70
2019-03-16T15:21:57.250Z,21.50
2019-03-16T15:24:28.259Z,21.00
2019-03-16T15:26:59.297Z,21.70
2019-03-16T15:29:31.389Z,22.70
2019-03-16T15:32:02.584Z,22.20
2019-03-16T15:34:33.595Z,22.20
2019-03-16T15:37:04.566Z,22.40
2019-03-16T15:39:35.626Z,22.10
2019-03-16T15:42:06.663Z,22.10
2019-03-16T15:44:38.284Z,22.50
2019-03-16T15:47:09.360Z,22.50
2019-03-16T15:49:40.304Z,22.50
2019-03-16T15:52:11.287Z,22.50
2019-03-16T15:54:42.228Z,21.90
2019-03-16T15:57:13.282Z,22.10
2019-03-16T15:59:44.227Z,21.80
2019-03-16T16:02:15.295Z,21.90
2019-03-16T16:04:46.278Z,22.30
2019-03-16T16:07:17.253Z,22.20
2019-03-16T16:09:48.224Z,21.70
2019-03-16T16:12:19.251Z,21.00
2019-03-16T16:14:50.235Z,20.40
2019-03-16T16:17:21.190Z,20.90
2019-03-16T16:19:52.174Z,20.90
2019-03-16T16:22:25.171Z,21.00
2019-03-16T16:24:56.177Z,21.50
2019-03-16T16:27:27.233Z,22.00
2019-03-16T16:29:58.201Z,21.50
2019-03-16T16:32:29.169Z,21.20
2019-03-16T16:35:00.365Z,20.80
2019-03-16T16:37:31.377Z,20.20
2019-03-16T16:40:02.287Z,19.90
2019-03-16T16:42:33.236Z,19.60
2019-03-16T16:45:04.407Z,18.80
2019-03-16T16:47:38.032Z,17.60
2019-03-16T16:50:25.839Z,17.00
2019-03-16T16:52:56.987Z,16.60
2019-03-16T16:55:27.960Z,16.20
2019-03-16T16:57:58.928Z,15.90
2019-03-16T17:00:29.882Z,15.70
2019-03-16T17:03:00.859Z,15.40
2019-03-16T17:05:31.809Z,15.20
2019-03-16T17:08:02.862Z,15.00
2019-03-16T17:10:33.738Z,14.80
2019-03-16T17:13:04.697Z,14.70
2019-03-16T17:15:35.654Z,14.50
2019-03-16T17:18:07.195Z,14.40
2019-03-16T17:20:39.709Z,14.20
2019-03-16T17:23:10.684Z,14.10
2019-03-16T17:25:41.635Z,14.00
2019-03-16T17:28:12.602Z,13.80
2019-03-16T17:30:44.648Z,13.80
2019-03-16T17:33:15.745Z,13.60
2019-03-16T17:35:46.693Z,13.60
2019-03-16T17:38:17.702Z,13.40
2019-03-16T17:40:48.776Z,13.30
2019-03-16T17:43:19.830Z,13.30
2019-03-16T17:45:50.779Z,13.20
2019-03-16T17:48:21.759Z,13.00
2019-03-16T17:50:52.697Z,12.90
2019-03-16T17:53:23.721Z,12.90
2019-03-16T17:55:54.886Z,12.80
2019-03-16T17:58:25.829Z,12.60
2019-03-16T18:00:56.916Z,12.50
2019-03-16T18:03:27.887Z,12.40
2019-03-16T18:05:58.865Z,12.30
2019-03-16T18:08:31.274Z,12.10
2019-03-16T18:11:02.255Z,12.00
2019-03-16T18:13:33.209Z,12.00
2019-03-16T18:16:04.234Z,11.90
2019-03-16T18:18:35.180Z,11.80
2019-03-16T18:21:06.149Z,11.70
2019-03-16T18:23:37.111Z,11.60
2019-03-16T18:26:08.227Z,11.50
2019-03-16T18:28:39.353Z,11.30
2019-03-16T18:31:11.319Z,10.80
2019-03-16T18:33:42.274Z,10.80
2019-03-16T18:36:13.276Z,10.70
2019-03-16T18:38:44.281Z,10.60
2019-03-16T18:41:15.364Z,10.50
2019-03-16T18:43:46.362Z,10.40
2019-03-16T18:46:17.367Z,10.30
2019-03-16T18:48:48.378Z,10.10
2019-03-16T18:51:19.342Z,10.10
2019-03-16T18:53:50.331Z,10.20
2019-03-16T18:56:21.272Z,10.30
2019-03-16T18:58:52.266Z,10.40
2019-03-16T19:01:23.207Z,10.50
2019-03-16T19:03:54.234Z,10.40
2019-03-16T19:06:25.341Z,10.40
2019-03-16T19:08:56.373Z,10.30
2019-03-16T19:11:27.312Z,10.20
2019-03-16T19:13:58.285Z,10.20
2019-03-16T19:16:29.234Z,10.20
2019-03-16T19:19:00.194Z,10.10
2019-03-16T19:21:31.155Z,10.00
2019-03-16T19:24:02.136Z,9.90
2019-03-16T19:26:33.101Z,9.80
2019-03-16T19:29:04.095Z,9.70
2019-03-16T19:31:35.071Z,9.60
2019-03-16T19:34:06.135Z,9.60
2019-03-16T19:36:37.103Z,9.60
2019-03-16T19:39:08.284Z,9.70
2019-03-16T19:41:41.639Z,9.70
2019-03-16T19:44:12.025Z,9.70
2019-03-16T19:46:42.986Z,9.70
2019-03-16T19:49:13.939Z,9.60
2019-03-16T19:51:44.893Z,9.50
2019-03-16T19:54:15.832Z,9.40
2019-03-16T19:56:46.834Z,9.40
2019-03-16T19:59:17.804Z,9.40
2019-03-16T20:01:48.796Z,9.30
2019-03-16T20:04:19.736Z,9.10
2019-03-16T20:06:50.706Z,9.00
2019-03-16T20:09:24.383Z,8.80
2019-03-16T20:11:54.415Z,8.70
2019-03-16T20:14:25.351Z,8.70
2019-03-16T20:16:56.312Z,8.70
2019-03-16T20:19:28.403Z,8.80
2019-03-16T20:21:59.400Z,8.90
2019-03-16T20:24:30.369Z,9.00
2019-03-16T20:27:01.334Z,9.10
2019-03-16T20:29:32.294Z,9.20
2019-03-16T20:32:03.231Z,9.20
2019-03-16T20:34:34.251Z,9.30
2019-03-16T20:37:05.180Z,9.30
2019-03-16T20:39:36.140Z,9.50
2019-03-16T20:42:07.096Z,9.70
2019-03-16T20:44:39.567Z,9.90
2019-03-16T20:47:10.499Z,10.00
2019-03-16T20:49:41.830Z,10.20
2019-03-16T20:52:12.862Z,10.30
2019-03-16T20:54:44.020Z,10.40
2019-03-16T20:57:14.970Z,10.60
2019-03-16T20:59:45.973Z,10.80
2019-03-16T21:02:17.002Z,11.00
2019-03-16T21:04:48.325Z,11.00
2019-03-16T21:07:19.340Z,11.00
2019-03-16T21:09:50.318Z,11.10
2019-03-16T21:12:24.244Z,11.20
2019-03-16T21:14:55.206Z,11.20
2019-03-16T21:17:26.180Z,11.30
2019-03-16T21:19:57.129Z,11.30
2019-03-16T21:22:35.528Z,11.20
2019-03-16T21:25:00.752Z,11.10
2019-03-16T21:27:31.749Z,11.10
2019-03-16T21:30:02.695Z,10.90
2019-03-16T21:32:35.215Z,10.80
2019-03-16T21:35:08.260Z,10.60
2019-03-16T21:37:39.231Z,10.50
2019-03-16T21:40:16.031Z,10.40
2019-03-16T21:42:47.271Z,10.30
2019-03-16T21:45:18.206Z,10.20
2019-03-16T21:47:59.603Z,10.10
2019-03-16T21:50:21.878Z,10.00
2019-03-16T21:52:52.877Z,9.90
2019-03-16T21:55:23.905Z,9.80
2019-03-16T21:57:54.942Z,9.80
2019-03-16T22:00:25.882Z,9.70
2019-03-16T22:02:56.909Z,9.60
2019-03-16T22:05:27.892Z,9.60
2019-03-16T22:07:58.858Z,9.60
2019-03-16T22:10:29.792Z,9.70
2019-03-16T22:13:00.839Z,9.60
2019-03-16T22:15:31.823Z,9.60
2019-03-16T22:18:02.899Z,9.70
2019-03-16T22:20:33.872Z,9.80
2019-03-16T22:23:06.366Z,9.80
2019-03-16T22:25:37.606Z,10.00
2019-03-16T22:28:10.271Z,10.10
2019-03-16T22:30:41.393Z,10.10
2019-03-16T22:33:12.322Z,10.20
2019-03-16T22:35:43.294Z,10.20
2019-03-16T22:38:14.227Z,10.10
2019-03-16T22:40:45.204Z,10.10
2019-03-16T22:43:16.218Z,10.00
2019-03-16T22:45:47.252Z,10.00
2019-03-16T22:48:20.579Z,10.00
2019-03-16T22:50:50.910Z,9.90
2019-03-16T22:53:21.956Z,9.90
2019-03-16T22:55:53.006Z,9.80
2019-03-16T22:58:24.013Z,9.80
2019-03-16T23:00:55.281Z,9.90
2019-03-16T23:03:26.310Z,9.90
2019-03-16T23:05:57.671Z,9.80
2019-03-16T23:08:28.655Z,9.80
2019-03-16T23:10:59.693Z,9.80
2019-03-16T23:13:30.739Z,9.70
2019-03-16T23:16:01.822Z,9.70
2019-03-16T23:18:32.825Z,9.70
2019-03-16T23:21:03.760Z,9.70
2019-03-16T23:23:34.738Z,9.70
2019-03-16T23:26:05.821Z,9.60
2019-03-16T23:28:36.799Z,9.60
2019-03-16T23:31:07.822Z,9.50
2019-03-16T23:33:38.918Z,9.50
2019-03-16T23:36:09.848Z,9.30
2019-03-16T23:38:40.831Z,9.20
2019-03-16T23:41:11.860Z,9.10
2019-03-16T23:43:42.818Z,8.90
2019-03-16T23:46:13.749Z,8.80
2019-03-16T23:48:44.716Z,8.70
2019-03-16T23:51:15.652Z,8.40
2019-03-16T23:53:46.608Z,8.10
2019-03-16T23:56:17.541Z,7.90
2019-03-16T23:58:48.507Z,7.70
